sensor_id;sensor_type;location;lat;lon;timestamp;temperature;humidity
12704;DHT22;6416;52.182;7.650;2022-08-23T00:01:21;24.50;49.60
12704;DHT22;6416;52.182;7.650;2022-08-23T00:03:48;24.50;49.70
12704;DHT22;6416;52.182;7.650;2022-08-23T00:06:14;24.50;49.70
12704;DHT22;6416;52.182;7.650;2022-08-23T00:08:40;24.50;49.80
12704;DHT22;6416;52.182;7.650;2022-08-23T00:11:33;24.40;49.80
12704;DHT22;6416;52.182;7.650;2022-08-23T00:14:02;24.40;50.70
12704;DHT22;6416;52.182;7.650;2022-08-23T00:16:29;24.40;49.80
12704;DHT22;6416;52.182;7.650;2022-08-23T00:18:54;24.40;50.00
12704;DHT22;6416;52.182;7.650;2022-08-23T00:21:20;24.40;50.10
12704;DHT22;6416;52.182;7.650;2022-08-23T00:23:46;24.30;50.10
12704;DHT22;6416;52.182;7.650;2022-08-23T00:26:12;24.30;50.20
12704;DHT22;6416;52.182;7.650;2022-08-23T00:28:37;24.30;50.30
12704;DHT22;6416;52.182;7.650;2022-08-23T00:31:03;24.20;51.00
12704;DHT22;6416;52.182;7.650;2022-08-23T00:33:28;24.20;50.30
12704;DHT22;6416;52.182;7.650;2022-08-23T00:35:54;24.20;50.50
12704;DHT22;6416;52.182;7.650;2022-08-23T00:38:19;24.10;50.40
12704;DHT22;6416;52.182;7.650;2022-08-23T00:40:47;24.00;50.50
12704;DHT22;6416;52.182;7.650;2022-08-23T00:43:16;24.00;50.60
12704;DHT22;6416;52.182;7.650;2022-08-23T00:48:28;23.90;51.60
12704;DHT22;6416;52.182;7.650;2022-08-23T00:51:05;23.90;50.80
12704;DHT22;6416;52.182;7.650;2022-08-23T00:53:36;23.80;50.90
12704;DHT22;6416;52.182;7.650;2022-08-23T00:56:05;23.80;51.20
12704;DHT22;6416;52.182;7.650;2022-08-23T00:58:31;23.70;51.20
12704;DHT22;6416;52.182;7.650;2022-08-23T01:00:59;23.70;51.10
12704;DHT22;6416;52.182;7.650;2022-08-23T01:03:28;23.70;51.30
12704;DHT22;6416;52.182;7.650;2022-08-23T01:06:06;23.60;51.20
12704;DHT22;6416;52.182;7.650;2022-08-23T01:08:34;23.50;51.60
12704;DHT22;6416;52.182;7.650;2022-08-23T01:11:15;23.50;51.00
12704;DHT22;6416;52.182;7.650;2022-08-23T01:13:47;23.40;52.00
12704;DHT22;6416;52.182;7.650;2022-08-23T01:16:30;23.30;52.10
12704;DHT22;6416;52.182;7.650;2022-08-23T01:18:57;23.30;51.80
12704;DHT22;6416;52.182;7.650;2022-08-23T01:21:45;23.20;51.20
12704;DHT22;6416;52.182;7.650;2022-08-23T01:24:13;23.20;52.30
12704;DHT22;6416;52.182;7.650;2022-08-23T01:26:39;23.10;51.30
12704;DHT22;6416;52.182;7.650;2022-08-23T01:29:06;23.00;51.50
12704;DHT22;6416;52.182;7.650;2022-08-23T01:31:32;23.00;51.60
12704;DHT22;6416;52.182;7.650;2022-08-23T01:34:03;23.00;51.70
12704;DHT22;6416;52.182;7.650;2022-08-23T01:36:29;22.90;52.30
12704;DHT22;6416;52.182;7.650;2022-08-23T01:38:56;22.80;51.80
12704;DHT22;6416;52.182;7.650;2022-08-23T01:41:21;22.80;51.90
12704;DHT22;6416;52.182;7.650;2022-08-23T01:43:47;22.80;52.00
12704;DHT22;6416;52.182;7.650;2022-08-23T01:46:15;22.70;52.10
12704;DHT22;6416;52.182;7.650;2022-08-23T01:48:41;22.70;52.20
12704;DHT22;6416;52.182;7.650;2022-08-23T01:51:06;22.60;52.00
12704;DHT22;6416;52.182;7.650;2022-08-23T01:53:32;22.60;52.10
12704;DHT22;6416;52.182;7.650;2022-08-23T01:55:59;22.50;52.10
12704;DHT22;6416;52.182;7.650;2022-08-23T01:58:24;22.50;52.70
12704;DHT22;6416;52.182;7.650;2022-08-23T02:00:50;22.50;52.00
12704;DHT22;6416;52.182;7.650;2022-08-23T02:03:15;22.40;51.90
12704;DHT22;6416;52.182;7.650;2022-08-23T02:05:41;22.40;52.10
12704;DHT22;6416;52.182;7.650;2022-08-23T02:08:08;22.40;52.40
12704;DHT22;6416;52.182;7.650;2022-08-23T02:10:33;22.30;52.50
12704;DHT22;6416;52.182;7.650;2022-08-23T02:12:59;22.30;52.80
12704;DHT22;6416;52.182;7.650;2022-08-23T02:15:24;22.20;52.90
12704;DHT22;6416;52.182;7.650;2022-08-23T02:17:50;22.30;53.10
12704;DHT22;6416;52.182;7.650;2022-08-23T02:20:15;22.20;53.10
12704;DHT22;6416;52.182;7.650;2022-08-23T02:22:41;22.20;53.30
12704;DHT22;6416;52.182;7.650;2022-08-23T02:25:07;22.20;53.40
12704;DHT22;6416;52.182;7.650;2022-08-23T02:27:33;22.10;53.10
12704;DHT22;6416;52.182;7.650;2022-08-23T02:29:58;22.00;52.80
12704;DHT22;6416;52.182;7.650;2022-08-23T02:32:24;22.00;52.70
12704;DHT22;6416;52.182;7.650;2022-08-23T02:34:49;22.00;52.70
12704;DHT22;6416;52.182;7.650;2022-08-23T02:37:15;22.00;52.60
12704;DHT22;6416;52.182;7.650;2022-08-23T02:39:41;21.90;52.60
12704;DHT22;6416;52.182;7.650;2022-08-23T02:42:08;21.90;52.60
12704;DHT22;6416;52.182;7.650;2022-08-23T02:44:33;21.90;52.50
12704;DHT22;6416;52.182;7.650;2022-08-23T02:47:00;21.80;52.50
12704;DHT22;6416;52.182;7.650;2022-08-23T02:49:27;21.90;52.60
12704;DHT22;6416;52.182;7.650;2022-08-23T02:51:52;21.80;52.50
12704;DHT22;6416;52.182;7.650;2022-08-23T02:54:18;21.80;52.50
12704;DHT22;6416;52.182;7.650;2022-08-23T02:56:44;21.80;52.40
12704;DHT22;6416;52.182;7.650;2022-08-23T02:59:09;21.80;52.40
12704;DHT22;6416;52.182;7.650;2022-08-23T03:01:37;21.90;52.40
12704;DHT22;6416;52.182;7.650;2022-08-23T03:04:09;21.80;52.40
12704;DHT22;6416;52.182;7.650;2022-08-23T03:06:35;21.80;53.00
12704;DHT22;6416;52.182;7.650;2022-08-23T03:09:03;21.80;52.30
12704;DHT22;6416;52.182;7.650;2022-08-23T03:11:29;21.80;52.30
12704;DHT22;6416;52.182;7.650;2022-08-23T03:13:54;21.80;52.20
12704;DHT22;6416;52.182;7.650;2022-08-23T03:16:20;21.80;52.20
12704;DHT22;6416;52.182;7.650;2022-08-23T03:18:46;21.80;52.20
12704;DHT22;6416;52.182;7.650;2022-08-23T03:21:13;21.80;52.20
12704;DHT22;6416;52.182;7.650;2022-08-23T03:23:39;21.80;52.20
12704;DHT22;6416;52.182;7.650;2022-08-23T03:26:06;21.70;52.10
12704;DHT22;6416;52.182;7.650;2022-08-23T03:28:34;21.80;52.20
12704;DHT22;6416;52.182;7.650;2022-08-23T03:31:01;21.80;52.20
12704;DHT22;6416;52.182;7.650;2022-08-23T03:33:26;21.80;52.20
12704;DHT22;6416;52.182;7.650;2022-08-23T03:35:52;21.70;52.20
12704;DHT22;6416;52.182;7.650;2022-08-23T03:38:21;21.70;52.20
12704;DHT22;6416;52.182;7.650;2022-08-23T03:40:47;21.70;52.10
12704;DHT22;6416;52.182;7.650;2022-08-23T03:43:12;21.70;52.10
12704;DHT22;6416;52.182;7.650;2022-08-23T03:45:38;21.70;52.10
12704;DHT22;6416;52.182;7.650;2022-08-23T03:48:03;21.70;52.20
12704;DHT22;6416;52.182;7.650;2022-08-23T03:50:29;21.70;52.20
12704;DHT22;6416;52.182;7.650;2022-08-23T03:52:55;21.70;52.20
12704;DHT22;6416;52.182;7.650;2022-08-23T03:55:20;21.70;52.20
12704;DHT22;6416;52.182;7.650;2022-08-23T03:57:46;21.70;52.40
12704;DHT22;6416;52.182;7.650;2022-08-23T04:00:13;21.60;52.20
12704;DHT22;6416;52.182;7.650;2022-08-23T04:02:39;21.60;52.30
12704;DHT22;6416;52.182;7.650;2022-08-23T04:05:05;21.60;52.30
12704;DHT22;6416;52.182;7.650;2022-08-23T04:07:31;21.60;52.40
12704;DHT22;6416;52.182;7.650;2022-08-23T04:09:57;21.60;52.50
12704;DHT22;6416;52.182;7.650;2022-08-23T04:12:22;21.60;52.70
12704;DHT22;6416;52.182;7.650;2022-08-23T04:14:48;21.60;52.80
12704;DHT22;6416;52.182;7.650;2022-08-23T04:17:14;21.60;52.80
12704;DHT22;6416;52.182;7.650;2022-08-23T04:19:40;21.50;52.70
12704;DHT22;6416;52.182;7.650;2022-08-23T04:22:11;21.50;53.40
12704;DHT22;6416;52.182;7.650;2022-08-23T04:24:37;21.50;53.00
12704;DHT22;6416;52.182;7.650;2022-08-23T04:27:02;21.50;52.80
12704;DHT22;6416;52.182;7.650;2022-08-23T04:29:28;21.50;52.80
12704;DHT22;6416;52.182;7.650;2022-08-23T04:31:53;21.50;52.90
12704;DHT22;6416;52.182;7.650;2022-08-23T04:34:22;21.50;52.90
12704;DHT22;6416;52.182;7.650;2022-08-23T04:36:48;21.50;52.90
12704;DHT22;6416;52.182;7.650;2022-08-23T04:39:13;21.50;52.90
12704;DHT22;6416;52.182;7.650;2022-08-23T04:41:38;21.50;53.60
12704;DHT22;6416;52.182;7.650;2022-08-23T04:44:04;21.50;53.00
12704;DHT22;6416;52.182;7.650;2022-08-23T04:46:30;21.50;52.90
12704;DHT22;6416;52.182;7.650;2022-08-23T04:48:55;21.50;53.60
12704;DHT22;6416;52.182;7.650;2022-08-23T04:51:21;21.50;52.90
12704;DHT22;6416;52.182;7.650;2022-08-23T04:53:47;21.50;52.90
12704;DHT22;6416;52.182;7.650;2022-08-23T04:56:12;21.60;53.00
12704;DHT22;6416;52.182;7.650;2022-08-23T04:58:38;21.60;53.00
12704;DHT22;6416;52.182;7.650;2022-08-23T05:01:06;21.60;52.90
12704;DHT22;6416;52.182;7.650;2022-08-23T05:03:32;21.60;53.00
12704;DHT22;6416;52.182;7.650;2022-08-23T05:05:58;21.40;54.70
12704;DHT22;6416;52.182;7.650;2022-08-23T05:08:24;21.50;54.20
12704;DHT22;6416;52.182;7.650;2022-08-23T05:10:50;21.50;53.90
12704;DHT22;6416;52.182;7.650;2022-08-23T05:13:16;21.60;53.80
12704;DHT22;6416;52.182;7.650;2022-08-23T05:15:42;21.70;53.80
12704;DHT22;6416;52.182;7.650;2022-08-23T05:18:07;21.80;53.70
12704;DHT22;6416;52.182;7.650;2022-08-23T05:20:33;22.00;53.80
12704;DHT22;6416;52.182;7.650;2022-08-23T05:22:59;22.10;53.80
12704;DHT22;6416;52.182;7.650;2022-08-23T05:25:25;22.30;53.80
12704;DHT22;6416;52.182;7.650;2022-08-23T05:27:55;22.50;53.80
12704;DHT22;6416;52.182;7.650;2022-08-23T05:30:20;22.60;53.70
12704;DHT22;6416;52.182;7.650;2022-08-23T05:32:46;22.80;53.70
12704;DHT22;6416;52.182;7.650;2022-08-23T05:35:11;23.00;53.80
12704;DHT22;6416;52.182;7.650;2022-08-23T05:37:37;23.20;53.70
12704;DHT22;6416;52.182;7.650;2022-08-23T05:40:03;23.40;53.60
12704;DHT22;6416;52.182;7.650;2022-08-23T05:42:28;23.70;53.50
12704;DHT22;6416;52.182;7.650;2022-08-23T05:44:54;23.90;53.50
12704;DHT22;6416;52.182;7.650;2022-08-23T05:47:19;24.10;53.20
12704;DHT22;6416;52.182;7.650;2022-08-23T05:49:45;24.40;53.00
12704;DHT22;6416;52.182;7.650;2022-08-23T05:52:12;24.60;52.70
12704;DHT22;6416;52.182;7.650;2022-08-23T05:54:38;24.80;52.30
12704;DHT22;6416;52.182;7.650;2022-08-23T05:57:04;25.00;52.20
12704;DHT22;6416;52.182;7.650;2022-08-23T05:59:29;25.20;51.90
12704;DHT22;6416;52.182;7.650;2022-08-23T06:01:55;25.40;51.70
12704;DHT22;6416;52.182;7.650;2022-08-23T06:04:21;25.60;52.20
12704;DHT22;6416;52.182;7.650;2022-08-23T06:06:46;25.80;51.20
12704;DHT22;6416;52.182;7.650;2022-08-23T06:09:15;26.00;51.00
12704;DHT22;6416;52.182;7.650;2022-08-23T06:11:45;26.20;50.80
12704;DHT22;6416;52.182;7.650;2022-08-23T06:14:12;26.30;50.30
12704;DHT22;6416;52.182;7.650;2022-08-23T06:16:40;26.50;50.00
12704;DHT22;6416;52.182;7.650;2022-08-23T06:19:07;26.70;49.60
12704;DHT22;6416;52.182;7.650;2022-08-23T06:21:33;26.80;49.30
12704;DHT22;6416;52.182;7.650;2022-08-23T06:24:00;27.00;49.30
12704;DHT22;6416;52.182;7.650;2022-08-23T06:26:35;27.20;49.00
12704;DHT22;6416;52.182;7.650;2022-08-23T06:29:05;27.30;48.30
12704;DHT22;6416;52.182;7.650;2022-08-23T06:31:31;27.50;48.40
12704;DHT22;6416;52.182;7.650;2022-08-23T06:33:57;27.60;48.10
12704;DHT22;6416;52.182;7.650;2022-08-23T06:36:22;27.80;47.80
12704;DHT22;6416;52.182;7.650;2022-08-23T06:38:48;28.00;47.40
12704;DHT22;6416;52.182;7.650;2022-08-23T06:41:13;28.10;47.10
12704;DHT22;6416;52.182;7.650;2022-08-23T06:43:39;28.30;46.90
12704;DHT22;6416;52.182;7.650;2022-08-23T06:46:18;28.40;46.80
12704;DHT22;6416;52.182;7.650;2022-08-23T06:48:45;28.60;46.00
12704;DHT22;6416;52.182;7.650;2022-08-23T06:53:45;29.00;45.80
12704;DHT22;6416;52.182;7.650;2022-08-23T06:56:10;29.10;45.90
12704;DHT22;6416;52.182;7.650;2022-08-23T06:58:36;29.30;45.40
12704;DHT22;6416;52.182;7.650;2022-08-23T07:01:18;29.40;45.40
12704;DHT22;6416;52.182;7.650;2022-08-23T07:03:45;29.60;44.80
12704;DHT22;6416;52.182;7.650;2022-08-23T07:06:10;29.90;45.30
12704;DHT22;6416;52.182;7.650;2022-08-23T07:08:36;30.10;44.90
12704;DHT22;6416;52.182;7.650;2022-08-23T07:11:01;30.40;44.50
12704;DHT22;6416;52.182;7.650;2022-08-23T07:13:27;30.60;43.70
12704;DHT22;6416;52.182;7.650;2022-08-23T07:16:00;30.70;43.20
12704;DHT22;6416;52.182;7.650;2022-08-23T07:18:25;30.80;42.40
12704;DHT22;6416;52.182;7.650;2022-08-23T07:20:55;31.00;41.90
12704;DHT22;6416;52.182;7.650;2022-08-23T07:23:21;31.10;41.90
12704;DHT22;6416;52.182;7.650;2022-08-23T07:25:46;31.20;42.20
12704;DHT22;6416;52.182;7.650;2022-08-23T07:28:13;31.40;42.10
12704;DHT22;6416;52.182;7.650;2022-08-23T07:30:38;31.60;42.00
12704;DHT22;6416;52.182;7.650;2022-08-23T07:33:04;31.80;42.00
12704;DHT22;6416;52.182;7.650;2022-08-23T07:35:29;32.00;41.70
12704;DHT22;6416;52.182;7.650;2022-08-23T07:37:56;32.20;41.40
12704;DHT22;6416;52.182;7.650;2022-08-23T07:40:21;32.40;40.80
12704;DHT22;6416;52.182;7.650;2022-08-23T07:42:47;32.60;40.80
12704;DHT22;6416;52.182;7.650;2022-08-23T07:45:12;32.80;40.30
12704;DHT22;6416;52.182;7.650;2022-08-23T07:47:38;33.10;40.60
12704;DHT22;6416;52.182;7.650;2022-08-23T07:50:03;33.40;40.70
12704;DHT22;6416;52.182;7.650;2022-08-23T07:52:29;33.70;39.70
12704;DHT22;6416;52.182;7.650;2022-08-23T07:54:55;33.90;39.00
12704;DHT22;6416;52.182;7.650;2022-08-23T07:57:20;34.20;38.90
12704;DHT22;6416;52.182;7.650;2022-08-23T07:59:46;34.50;38.80
12704;DHT22;6416;52.182;7.650;2022-08-23T08:02:11;34.70;38.20
12704;DHT22;6416;52.182;7.650;2022-08-23T08:04:37;35.00;38.50
12704;DHT22;6416;52.182;7.650;2022-08-23T08:07:02;35.20;37.80
12704;DHT22;6416;52.182;7.650;2022-08-23T08:09:28;35.40;37.10
12704;DHT22;6416;52.182;7.650;2022-08-23T08:11:54;35.60;36.30
12704;DHT22;6416;52.182;7.650;2022-08-23T08:14:19;35.80;35.80
12704;DHT22;6416;52.182;7.650;2022-08-23T08:16:46;36.00;35.30
12704;DHT22;6416;52.182;7.650;2022-08-23T08:19:14;36.20;35.20
12704;DHT22;6416;52.182;7.650;2022-08-23T08:21:40;36.40;35.10
12704;DHT22;6416;52.182;7.650;2022-08-23T08:24:07;36.50;34.30
12704;DHT22;6416;52.182;7.650;2022-08-23T08:26:32;36.70;34.00
12704;DHT22;6416;52.182;7.650;2022-08-23T08:28:58;36.90;34.00
12704;DHT22;6416;52.182;7.650;2022-08-23T08:31:24;37.10;33.90
12704;DHT22;6416;52.182;7.650;2022-08-23T08:33:50;37.40;33.70
12704;DHT22;6416;52.182;7.650;2022-08-23T08:38:53;37.80;32.20
12704;DHT22;6416;52.182;7.650;2022-08-23T08:41:29;38.00;32.50
12704;DHT22;6416;52.182;7.650;2022-08-23T08:46:59;38.40;31.20
12704;DHT22;6416;52.182;7.650;2022-08-23T08:49:51;38.60;31.60
12704;DHT22;6416;52.182;7.650;2022-08-23T08:52:25;38.70;30.80
12704;DHT22;6416;52.182;7.650;2022-08-23T08:54:56;39.00;30.70
12704;DHT22;6416;52.182;7.650;2022-08-23T08:57:24;39.30;30.70
12704;DHT22;6416;52.182;7.650;2022-08-23T09:00:10;39.60;31.20
12704;DHT22;6416;52.182;7.650;2022-08-23T09:02:36;39.80;30.50
12704;DHT22;6416;52.182;7.650;2022-08-23T09:05:08;40.20;30.60
12704;DHT22;6416;52.182;7.650;2022-08-23T09:08:05;40.50;30.00
12704;DHT22;6416;52.182;7.650;2022-08-23T09:18:38;41.50;28.60
12704;DHT22;6416;52.182;7.650;2022-08-23T09:21:06;41.70;28.80
12704;DHT22;6416;52.182;7.650;2022-08-23T09:23:44;41.90;28.80
12704;DHT22;6416;52.182;7.650;2022-08-23T09:28:43;42.50;27.40
12704;DHT22;6416;52.182;7.650;2022-08-23T09:31:09;42.70;27.60
12704;DHT22;6416;52.182;7.650;2022-08-23T09:33:39;42.90;26.90
12704;DHT22;6416;52.182;7.650;2022-08-23T09:36:19;43.00;26.30
12704;DHT22;6416;52.182;7.650;2022-08-23T09:38:57;43.00;26.20
12704;DHT22;6416;52.182;7.650;2022-08-23T09:41:31;43.10;26.10
12704;DHT22;6416;52.182;7.650;2022-08-23T09:43:57;43.10;25.60
12704;DHT22;6416;52.182;7.650;2022-08-23T09:46:32;43.10;26.10
12704;DHT22;6416;52.182;7.650;2022-08-23T09:48:58;43.30;26.40
12704;DHT22;6416;52.182;7.650;2022-08-23T09:56:27;43.90;25.30
12704;DHT22;6416;52.182;7.650;2022-08-23T09:58:52;44.20;25.60
12704;DHT22;6416;52.182;7.650;2022-08-23T10:01:25;44.30;25.50
12704;DHT22;6416;52.182;7.650;2022-08-23T10:04:30;44.40;25.00
12704;DHT22;6416;52.182;7.650;2022-08-23T10:09:47;44.70;24.60
12704;DHT22;6416;52.182;7.650;2022-08-23T10:12:12;44.80;24.60
12704;DHT22;6416;52.182;7.650;2022-08-23T10:14:38;44.90;24.70
12704;DHT22;6416;52.182;7.650;2022-08-23T10:20:28;45.10;23.80
12704;DHT22;6416;52.182;7.650;2022-08-23T10:26:02;45.30;24.40
12704;DHT22;6416;52.182;7.650;2022-08-23T10:31:41;45.40;22.50
12704;DHT22;6416;52.182;7.650;2022-08-23T10:34:32;45.30;22.90
12704;DHT22;6416;52.182;7.650;2022-08-23T10:43:12;45.30;23.20
12704;DHT22;6416;52.182;7.650;2022-08-23T10:45:41;45.40;23.10
12704;DHT22;6416;52.182;7.650;2022-08-23T10:48:25;45.50;23.20
12704;DHT22;6416;52.182;7.650;2022-08-23T10:50:58;45.60;23.10
12704;DHT22;6416;52.182;7.650;2022-08-23T10:53:38;45.60;22.50
12704;DHT22;6416;52.182;7.650;2022-08-23T10:56:05;45.60;22.30
12704;DHT22;6416;52.182;7.650;2022-08-23T11:01:27;45.60;22.20
12704;DHT22;6416;52.182;7.650;2022-08-23T11:04:08;45.60;22.00
12704;DHT22;6416;52.182;7.650;2022-08-23T11:06:40;45.60;22.10
12704;DHT22;6416;52.182;7.650;2022-08-23T11:14:33;45.50;21.80
12704;DHT22;6416;52.182;7.650;2022-08-23T11:17:24;45.30;21.80
12704;DHT22;6416;52.182;7.650;2022-08-23T11:19:56;45.10;21.60
12704;DHT22;6416;52.182;7.650;2022-08-23T11:22:29;44.90;21.60
12704;DHT22;6416;52.182;7.650;2022-08-23T11:25:03;44.70;21.90
12704;DHT22;6416;52.182;7.650;2022-08-23T11:27:40;44.70;22.10
12704;DHT22;6416;52.182;7.650;2022-08-23T11:35:56;45.10;22.80
12704;DHT22;6416;52.182;7.650;2022-08-23T11:43:46;45.30;21.90
12704;DHT22;6416;52.182;7.650;2022-08-23T12:18:51;46.10;21.00
12704;DHT22;6416;52.182;7.650;2022-08-23T12:21:27;46.10;20.40
12704;DHT22;6416;52.182;7.650;2022-08-23T12:23:58;46.00;20.60
12704;DHT22;6416;52.182;7.650;2022-08-23T12:29:33;45.90;20.70
12704;DHT22;6416;52.182;7.650;2022-08-23T12:32:25;45.90;21.10
12704;DHT22;6416;52.182;7.650;2022-08-23T12:35:15;45.80;20.70
12704;DHT22;6416;52.182;7.650;2022-08-23T12:38:06;45.80;20.40
12704;DHT22;6416;52.182;7.650;2022-08-23T12:40:42;45.80;20.50
12704;DHT22;6416;52.182;7.650;2022-08-23T12:43:40;45.90;20.80
12704;DHT22;6416;52.182;7.650;2022-08-23T12:46:28;45.80;20.60
12704;DHT22;6416;52.182;7.650;2022-08-23T12:48:53;45.70;19.90
12704;DHT22;6416;52.182;7.650;2022-08-23T12:51:19;45.70;20.80
12704;DHT22;6416;52.182;7.650;2022-08-23T12:53:44;45.60;20.70
12704;DHT22;6416;52.182;7.650;2022-08-23T12:56:17;45.50;20.20
12704;DHT22;6416;52.182;7.650;2022-08-23T12:58:50;45.50;20.40
12704;DHT22;6416;52.182;7.650;2022-08-23T13:01:26;45.50;20.40
12704;DHT22;6416;52.182;7.650;2022-08-23T13:03:57;45.40;20.40
12704;DHT22;6416;52.182;7.650;2022-08-23T13:06:29;45.30;20.10
12704;DHT22;6416;52.182;7.650;2022-08-23T13:09:06;45.30;20.40
12704;DHT22;6416;52.182;7.650;2022-08-23T13:11:33;45.30;20.10
12704;DHT22;6416;52.182;7.650;2022-08-23T13:16:52;45.30;19.90
12704;DHT22;6416;52.182;7.650;2022-08-23T13:19:25;45.20;19.90
12704;DHT22;6416;52.182;7.650;2022-08-23T13:22:26;45.10;19.50
12704;DHT22;6416;52.182;7.650;2022-08-23T13:27:33;44.70;19.30
12704;DHT22;6416;52.182;7.650;2022-08-23T13:30:03;44.30;19.10
12704;DHT22;6416;52.182;7.650;2022-08-23T13:32:51;43.90;19.20
12704;DHT22;6416;52.182;7.650;2022-08-23T13:37:57;43.00;19.40
12704;DHT22;6416;52.182;7.650;2022-08-23T13:40:28;42.60;19.40
12704;DHT22;6416;52.182;7.650;2022-08-23T13:43:03;42.20;19.70
12704;DHT22;6416;52.182;7.650;2022-08-23T13:45:35;41.80;20.20
12704;DHT22;6416;52.182;7.650;2022-08-23T13:48:12;41.50;20.50
12704;DHT22;6416;52.182;7.650;2022-08-23T13:50:39;41.30;20.70
12704;DHT22;6416;52.182;7.650;2022-08-23T13:53:05;41.10;20.80
12704;DHT22;6416;52.182;7.650;2022-08-23T13:55:43;40.90;20.90
12704;DHT22;6416;52.182;7.650;2022-08-23T13:58:28;40.70;21.00
12704;DHT22;6416;52.182;7.650;2022-08-23T14:00:55;40.50;21.50
12704;DHT22;6416;52.182;7.650;2022-08-23T14:03:22;40.40;21.20
12704;DHT22;6416;52.182;7.650;2022-08-23T14:05:48;40.20;21.10
12704;DHT22;6416;52.182;7.650;2022-08-23T14:08:13;40.10;21.40
12704;DHT22;6416;52.182;7.650;2022-08-23T14:10:39;39.90;21.40
12704;DHT22;6416;52.182;7.650;2022-08-23T14:13:05;39.80;21.60
12704;DHT22;6416;52.182;7.650;2022-08-23T14:15:31;39.60;21.70
12704;DHT22;6416;52.182;7.650;2022-08-23T14:17:57;39.50;21.90
12704;DHT22;6416;52.182;7.650;2022-08-23T14:20:23;39.40;22.00
12704;DHT22;6416;52.182;7.650;2022-08-23T14:22:48;39.30;22.10
12704;DHT22;6416;52.182;7.650;2022-08-23T14:25:14;39.20;22.30
12704;DHT22;6416;52.182;7.650;2022-08-23T14:27:41;39.00;22.40
12704;DHT22;6416;52.182;7.650;2022-08-23T14:30:09;38.90;22.50
12704;DHT22;6416;52.182;7.650;2022-08-23T14:32:36;38.80;22.50
12704;DHT22;6416;52.182;7.650;2022-08-23T14:35:01;38.70;22.50
12704;DHT22;6416;52.182;7.650;2022-08-23T14:37:27;38.60;22.70
12704;DHT22;6416;52.182;7.650;2022-08-23T14:39:52;38.60;22.60
12704;DHT22;6416;52.182;7.650;2022-08-23T14:42:20;38.50;22.70
12704;DHT22;6416;52.182;7.650;2022-08-23T14:44:46;38.40;22.90
12704;DHT22;6416;52.182;7.650;2022-08-23T14:47:11;38.30;23.00
12704;DHT22;6416;52.182;7.650;2022-08-23T14:49:37;38.20;23.10
12704;DHT22;6416;52.182;7.650;2022-08-23T14:52:02;38.10;23.40
12704;DHT22;6416;52.182;7.650;2022-08-23T14:54:28;38.10;23.70
12704;DHT22;6416;52.182;7.650;2022-08-23T14:56:54;38.00;23.90
12704;DHT22;6416;52.182;7.650;2022-08-23T14:59:19;37.90;23.80
12704;DHT22;6416;52.182;7.650;2022-08-23T15:01:47;37.90;24.00
12704;DHT22;6416;52.182;7.650;2022-08-23T15:04:18;37.80;24.00
12704;DHT22;6416;52.182;7.650;2022-08-23T15:06:44;37.80;23.70
12704;DHT22;6416;52.182;7.650;2022-08-23T15:09:09;37.70;23.70
12704;DHT22;6416;52.182;7.650;2022-08-23T15:11:35;37.60;23.70
12704;DHT22;6416;52.182;7.650;2022-08-23T15:14:00;37.60;23.80
12704;DHT22;6416;52.182;7.650;2022-08-23T15:16:26;37.60;23.80
12704;DHT22;6416;52.182;7.650;2022-08-23T15:18:52;37.50;23.80
12704;DHT22;6416;52.182;7.650;2022-08-23T15:21:18;37.50;23.90
12704;DHT22;6416;52.182;7.650;2022-08-23T15:23:44;37.40;24.40
12704;DHT22;6416;52.182;7.650;2022-08-23T15:26:11;37.40;24.60
12704;DHT22;6416;52.182;7.650;2022-08-23T15:28:37;37.40;24.80
12704;DHT22;6416;52.182;7.650;2022-08-23T15:31:04;37.40;24.80
12704;DHT22;6416;52.182;7.650;2022-08-23T15:33:30;37.30;24.50
12704;DHT22;6416;52.182;7.650;2022-08-23T15:35:55;37.30;24.40
12704;DHT22;6416;52.182;7.650;2022-08-23T15:38:22;37.20;24.40
12704;DHT22;6416;52.182;7.650;2022-08-23T15:40:50;37.10;24.30
12704;DHT22;6416;52.182;7.650;2022-08-23T15:43:17;37.10;24.30
12704;DHT22;6416;52.182;7.650;2022-08-23T15:45:43;37.00;24.50
12704;DHT22;6416;52.182;7.650;2022-08-23T15:48:21;36.90;24.60
12704;DHT22;6416;52.182;7.650;2022-08-23T15:50:47;36.90;24.70
12704;DHT22;6416;52.182;7.650;2022-08-23T15:53:14;36.80;24.50
12704;DHT22;6416;52.182;7.650;2022-08-23T15:55:40;36.80;24.60
12704;DHT22;6416;52.182;7.650;2022-08-23T15:58:06;36.70;24.70
12704;DHT22;6416;52.182;7.650;2022-08-23T16:00:32;36.70;25.30
12704;DHT22;6416;52.182;7.650;2022-08-23T16:02:57;36.60;24.70
12704;DHT22;6416;52.182;7.650;2022-08-23T16:05:23;36.60;24.70
12704;DHT22;6416;52.182;7.650;2022-08-23T16:07:52;36.50;24.80
12704;DHT22;6416;52.182;7.650;2022-08-23T16:10:19;36.40;24.90
12704;DHT22;6416;52.182;7.650;2022-08-23T16:12:45;36.30;24.90
12704;DHT22;6416;52.182;7.650;2022-08-23T16:15:10;36.30;25.00
12704;DHT22;6416;52.182;7.650;2022-08-23T16:17:36;36.20;25.00
12704;DHT22;6416;52.182;7.650;2022-08-23T16:20:05;36.10;25.00
12704;DHT22;6416;52.182;7.650;2022-08-23T16:22:30;36.00;25.10
12704;DHT22;6416;52.182;7.650;2022-08-23T16:24:56;36.00;25.30
12704;DHT22;6416;52.182;7.650;2022-08-23T16:27:21;35.90;25.30
12704;DHT22;6416;52.182;7.650;2022-08-23T16:29:47;35.90;25.50
12704;DHT22;6416;52.182;7.650;2022-08-23T16:32:13;35.80;25.40
12704;DHT22;6416;52.182;7.650;2022-08-23T16:34:38;35.70;25.70
12704;DHT22;6416;52.182;7.650;2022-08-23T16:37:05;35.70;25.70
12704;DHT22;6416;52.182;7.650;2022-08-23T16:39:32;35.60;26.30
12704;DHT22;6416;52.182;7.650;2022-08-23T16:41:57;35.60;25.70
12704;DHT22;6416;52.182;7.650;2022-08-23T16:44:23;35.60;25.90
12704;DHT22;6416;52.182;7.650;2022-08-23T16:46:49;35.50;25.80
12704;DHT22;6416;52.182;7.650;2022-08-23T16:49:16;35.40;25.80
12704;DHT22;6416;52.182;7.650;2022-08-23T16:51:42;35.40;25.80
12704;DHT22;6416;52.182;7.650;2022-08-23T16:54:08;35.40;26.10
12704;DHT22;6416;52.182;7.650;2022-08-23T16:56:34;35.30;26.10
12704;DHT22;6416;52.182;7.650;2022-08-23T16:59:02;35.30;26.20
12704;DHT22;6416;52.182;7.650;2022-08-23T17:01:29;35.10;26.30
12704;DHT22;6416;52.182;7.650;2022-08-23T17:04:06;35.10;26.40
12704;DHT22;6416;52.182;7.650;2022-08-23T17:06:31;35.10;26.40
12704;DHT22;6416;52.182;7.650;2022-08-23T17:08:57;35.00;26.40
12704;DHT22;6416;52.182;7.650;2022-08-23T17:11:22;35.00;26.30
12704;DHT22;6416;52.182;7.650;2022-08-23T17:13:48;34.90;26.30
12704;DHT22;6416;52.182;7.650;2022-08-23T17:16:13;34.80;26.50
12704;DHT22;6416;52.182;7.650;2022-08-23T17:18:39;34.80;26.70
12704;DHT22;6416;52.182;7.650;2022-08-23T17:21:06;34.70;26.70
12704;DHT22;6416;52.182;7.650;2022-08-23T17:23:31;34.70;27.00
12704;DHT22;6416;52.182;7.650;2022-08-23T17:25:57;34.50;27.00
12704;DHT22;6416;52.182;7.650;2022-08-23T17:28:22;34.50;27.00
12704;DHT22;6416;52.182;7.650;2022-08-23T17:30:48;34.50;27.50
12704;DHT22;6416;52.182;7.650;2022-08-23T17:33:14;34.40;27.40
12704;DHT22;6416;52.182;7.650;2022-08-23T17:35:39;34.30;27.70
12704;DHT22;6416;52.182;7.650;2022-08-23T17:38:05;34.30;27.70
12704;DHT22;6416;52.182;7.650;2022-08-23T17:40:34;34.20;27.60